^^
Saratoga-Weather Station Historical Data
Daily Summary for June 9, 2021 Units:  Both    English   Metric
Daily Weekly Monthly Yearly Custom
  High: Low: Average:
Temperature: 49.8 °F /  9.9 °C 33.8 °F /  1 °C 39.4 °F /  4.1 °C
Dew Point: 44.4 °F /  6.9 °C 33.1 °F /  0.6 °C 37 °F /  2.8 °C
Humidity: 98% 70% 91%
Wind Speed: 10.1mph /  16.3km/h - 0.5mph /  0.8km/h
Wind Gust: 10mph /  16.1km/h - -
Wind- - East
Pressure: 30.3 in /  1027.4 hPa 30.3 in /  1024.7 hPa -
Precipitation: 0.01 in /  0.2 mm    
Historical Graphs
 
 
Tabular Data for June 9, 2021
Time Temperature Dew Point Pressure Wind Wind Speed Wind Gust Humidity Rainfall Rate (Hourly) solar
00:03 34.5 °F /  1.4 °C 33.4 °F /  0.8 °C 30.3in /  1025.7hPa Calm     96% 0in /  0.0mm 0 W/m2
00:08 34.5 °F /  1.4 °C 33.4 °F /  0.8 °C 30.3in /  1025.7hPa Calm     96% 0in /  0.0mm 0 W/m2
00:13 34.3 °F /  1.3 °C 33.3 °F /  0.7 °C 30.3in /  1025.7hPa Calm     96% 0in /  0.0mm 0 W/m2
00:18 34.3 °F /  1.3 °C 33.3 °F /  0.7 °C 30.3in /  1025.7hPa Calm     96% 0in /  0.0mm 0 W/m2
00:23 34.3 °F /  1.3 °C 33.3 °F /  0.7 °C 30.3in /  1025.7hPa Calm     96% 0in /  0.0mm 0 W/m2
00:28 34.3 °F /  1.3 °C 33.3 °F /  0.7 °C 30.3in /  1025.7hPa Calm     96% 0in /  0.0mm 0 W/m2
00:33 34.3 °F /  1.3 °C 33.3 °F /  0.7 °C 30.3in /  1025.7hPa Calm     96% 0in /  0.0mm 0 W/m2
00:38 34.5 °F /  1.4 °C 33.4 °F /  0.8 °C 30.3in /  1025.7hPa Calm     96% 0in /  0.0mm 0 W/m2
00:43 34.5 °F /  1.4 °C 33.4 °F /  0.8 °C 30.3in /  1025.7hPa Calm     96% 0in /  0.0mm 0 W/m2
00:48 34.5 °F /  1.4 °C 33.4 °F /  0.8 °C 30.3in /  1025.7hPa Calm     96% 0in /  0.0mm 0 W/m2
00:53 34.9 °F /  1.6 °C 33.8 °F /  1 °C 30.3in /  1025.7hPa Calm     96% 0in /  0.0mm 0 W/m2
00:58 34.9 °F /  1.6 °C 34.2 °F /  1.2 °C 30.3in /  1025.7hPa Calm     97% 0in /  0.0mm 0 W/m2
01:03 34.9 °F /  1.6 °C 33.8 °F /  1 °C 30.3in /  1025.7hPa Calm     96% 0in /  0.0mm 0 W/m2
01:08 35.1 °F /  1.7 °C 34 °F /  1.1 °C 30.3in /  1025.7hPa Calm     96% 0in /  0.0mm 0 W/m2
01:13 35.2 °F /  1.8 °C 34.2 °F /  1.2 °C 30.3in /  1025.7hPa Calm     96% 0in /  0.0mm 0 W/m2
01:18 35.4 °F /  1.9 °C 34.7 °F /  1.5 °C 30.3in /  1025.7hPa Calm     97% 0in /  0.0mm 0 W/m2
01:23 35.6 °F /  2 °C 34.9 °F /  1.6 °C 30.3in /  1025.7hPa Calm     97% 0in /  0.0mm 0 W/m2
01:28 35.8 °F /  2.1 °C 35.1 °F /  1.7 °C 30.3in /  1025.7hPa Calm     97% 0in /  0.0mm 0 W/m2
01:33 35.8 °F /  2.1 °C 35.1 °F /  1.7 °C 30.3in /  1025.7hPa Calm     97% 0in /  0.0mm 0 W/m2
01:38 36 °F /  2.2 °C 35.2 °F /  1.8 °C 30.3in /  1025.7hPa Calm   2mph /  3.2km/h 97% 0in /  0.0mm 0 W/m2
01:43 36 °F /  2.2 °C 35.2 °F /  1.8 °C 30.3in /  1025.7hPa Calm     97% 0in /  0.0mm 0 W/m2
01:48 36 °F /  2.2 °C 35.2 °F /  1.8 °C 30.3in /  1025.7hPa Calm   2mph /  3.2km/h 97% 0in /  0.0mm 0 W/m2
01:53 36.1 °F /  2.3 °C 35.4 °F /  1.9 °C 30.3in /  1025.7hPa Calm     97% 0in /  0.0mm 0 W/m2
01:58 36.1 °F /  2.3 °C 35.4 °F /  1.9 °C 30.3in /  1025.7hPa Calm     97% 0in /  0.0mm 0 W/m2
02:03 36.1 °F /  2.3 °C 35.4 °F /  1.9 °C 30.3in /  1025.7hPa Calm     97% 0in /  0.0mm 0 W/m2
02:08 36.1 °F /  2.3 °C 35.4 °F /  1.9 °C 30.3in /  1025.7hPa Calm     97% 0in /  0.0mm 0 W/m2
02:13 36.1 °F /  2.3 °C 35.4 °F /  1.9 °C 30.3in /  1025.7hPa Calm     97% 0in /  0.0mm 0 W/m2
02:18 36.1 °F /  2.3 °C 35.4 °F /  1.9 °C 30.3in /  1025.7hPa Calm     97% 0in /  0.0mm 0 W/m2
02:23 36.1 °F /  2.3 °C 35.4 °F /  1.9 °C 30.3in /  1025.7hPa Calm     97% 0in /  0.0mm 0 W/m2
02:28 36.1 °F /  2.3 °C 35.4 °F /  1.9 °C 30.3in /  1025.7hPa Calm     97% 0in /  0.0mm 0 W/m2
02:33 36.1 °F /  2.3 °C 35.4 °F /  1.9 °C 30.3in /  1025.7hPa Calm     97% 0in /  0.0mm 0 W/m2
02:38 36.1 °F /  2.3 °C 35.4 °F /  1.9 °C 30.3in /  1025.7hPa Calm     97% 0in /  0.0mm 0 W/m2
02:43 36.1 °F /  2.3 °C 35.4 °F /  1.9 °C 30.3in /  1026.1hPa Calm     97% 0in /  0.0mm 0 W/m2
02:48 36.1 °F /  2.3 °C 35.4 °F /  1.9 °C 30.3in /  1025.7hPa Calm     97% 0in /  0.0mm 0 W/m2
02:53 36.1 °F /  2.3 °C 35.4 °F /  1.9 °C 30.3in /  1025.7hPa Calm     97% 0in /  0.0mm 0 W/m2
02:58 36.1 °F /  2.3 °C 35.4 °F /  1.9 °C 30.3in /  1025.7hPa Calm     97% 0in /  0.0mm 0 W/m2
03:03 36.1 °F /  2.3 °C 35.4 °F /  1.9 °C 30.3in /  1025.7hPa Calm     97% 0in /  0.0mm 0 W/m2
03:08 36.1 °F /  2.3 °C 35.4 °F /  1.9 °C 30.3in /  1025.7hPa Calm     97% 0in /  0.0mm 0 W/m2
03:13 36.1 °F /  2.3 °C 35.4 °F /  1.9 °C 30.3in /  1025.7hPa Calm     97% 0in /  0.0mm 0 W/m2
03:18 36.1 °F /  2.3 °C 35.4 °F /  1.9 °C 30.3in /  1025.7hPa Calm     97% 0in /  0.0mm 0 W/m2
03:23 36.1 °F /  2.3 °C 35.4 °F /  1.9 °C 30.3in /  1025.7hPa Calm     97% 0in /  0.0mm 0 W/m2
03:28 36.1 °F /  2.3 °C 35.4 °F /  1.9 °C 30.3in /  1025.7hPa Calm     97% 0.01in /  0.2mm 0 W/m2
03:33 36.1 °F /  2.3 °C 35.4 °F /  1.9 °C 30.3in /  1025.7hPa Calm     97% 0.01in /  0.2mm 0 W/m2
03:38 36.1 °F /  2.3 °C 35.4 °F /  1.9 °C 30.3in /  1025.7hPa Calm     97% 0.01in /  0.2mm 0 W/m2
03:43 36.1 °F /  2.3 °C 35.4 °F /  1.9 °C 30.3in /  1025.7hPa Calm     97% 0.01in /  0.2mm 0 W/m2
03:48 36.1 °F /  2.3 °C 35.4 °F /  1.9 °C 30.3in /  1025.7hPa Calm     97% 0.01in /  0.2mm 0 W/m2
03:53 36.1 °F /  2.3 °C 35.4 °F /  1.9 °C 30.3in /  1025.7hPa Calm     97% 0.01in /  0.2mm 0 W/m2
03:58 36.1 °F /  2.3 °C 35.4 °F /  1.9 °C 30.3in /  1025.7hPa Calm     97% 0.01in /  0.2mm 0 W/m2
04:03 36.3 °F /  2.4 °C 35.6 °F /  2 °C 30.3in /  1025.7hPa Calm     97% 0.01in /  0.2mm 0 W/m2
04:08 36.3 °F /  2.4 °C 35.6 °F /  2 °C 30.3in /  1025.7hPa Calm   3mph /  4.8km/h 97% 0.01in /  0.2mm 0 W/m2
04:13 36.3 °F /  2.4 °C 35.6 °F /  2 °C 30.3in /  1025.7hPa ENE 0.9mph /  1.4km/h 1mph /  1.6km/h 97% 0.01in /  0.2mm 0 W/m2
04:18 36.3 °F /  2.4 °C 35.6 °F /  2 °C 30.3in /  1025.7hPa Calm     97% 0.01in /  0.2mm 0 W/m2
04:23 36.3 °F /  2.4 °C 35.6 °F /  2 °C 30.3in /  1025.7hPa Calm     97% 0in /  0.0mm 0 W/m2
04:28 36.1 °F /  2.3 °C 35.4 °F /  1.9 °C 30.3in /  1025.7hPa Calm     97% 0in /  0.0mm 0 W/m2
04:33 36.1 °F /  2.3 °C 35.4 °F /  1.9 °C 30.3in /  1026.1hPa Calm     97% 0in /  0.0mm 0 W/m2
04:38 36.1 °F /  2.3 °C 35.4 °F /  1.9 °C 30.3in /  1026.1hPa Calm     97% 0in /  0.0mm 0 W/m2
04:43 36.1 °F /  2.3 °C 35.4 °F /  1.9 °C 30.3in /  1026.1hPa ENE 2mph /  3.2km/h 3mph /  4.8km/h 97% 0in /  0.0mm 0 W/m2
04:48 36 °F /  2.2 °C 35.2 °F /  1.8 °C 30.3in /  1026.1hPa ESE 2mph /  3.2km/h 4mph /  6.4km/h 97% 0in /  0.0mm 0 W/m2
04:53 36 °F /  2.2 °C 35.2 °F /  1.8 °C 30.3in /  1026.1hPa East 2mph /  3.2km/h 2mph /  3.2km/h 97% 0in /  0.0mm 0 W/m2
04:58 35.8 °F /  2.1 °C 35.1 °F /  1.7 °C 30.3in /  1026.1hPa East 0.9mph /  1.4km/h 1mph /  1.6km/h 97% 0in /  0.0mm 0 W/m2
05:03 35.8 °F /  2.1 °C 35.1 °F /  1.7 °C 30.3in /  1026.1hPa Calm   2mph /  3.2km/h 97% 0in /  0.0mm 0 W/m2
05:08 35.8 °F /  2.1 °C 35.1 °F /  1.7 °C 30.3in /  1026.1hPa Calm   1mph /  1.6km/h 97% 0in /  0.0mm 0 W/m2
05:13 35.6 °F /  2 °C 34.9 °F /  1.6 °C 30.3in /  1026.1hPa Calm     97% 0in /  0.0mm 0 W/m2
05:18 35.4 °F /  1.9 °C 34.7 °F /  1.5 °C 30.3in /  1026.1hPa Calm   2mph /  3.2km/h 97% 0in /  0.0mm 0 W/m2
05:23 35.4 °F /  1.9 °C 34.7 °F /  1.5 °C 30.3in /  1026.4hPa Calm     97% 0in /  0.0mm 0 W/m2
05:28 35.4 °F /  1.9 °C 34.7 °F /  1.5 °C 30.3in /  1026.4hPa Calm   2mph /  3.2km/h 97% 0in /  0.0mm 0 W/m2
05:33 35.4 °F /  1.9 °C 34.7 °F /  1.5 °C 30.3in /  1026.4hPa Calm     97% 0in /  0.0mm 0 W/m2
05:38 35.4 °F /  1.9 °C 34.7 °F /  1.5 °C 30.3in /  1026.4hPa Calm   2mph /  3.2km/h 97% 0in /  0.0mm 0 W/m2
05:43 35.2 °F /  1.8 °C 34.5 °F /  1.4 °C 30.3in /  1026.4hPa Calm     97% 0in /  0.0mm 0 W/m2
05:48 35.2 °F /  1.8 °C 34.5 °F /  1.4 °C 30.3in /  1026.4hPa Calm   1mph /  1.6km/h 97% 0in /  0.0mm 0 W/m2
05:53 35.2 °F /  1.8 °C 34.5 °F /  1.4 °C 30.3in /  1026.4hPa Calm     97% 0in /  0.0mm 0 W/m2
05:58 35.2 °F /  1.8 °C 34.5 °F /  1.4 °C 30.3in /  1026.4hPa Calm     97% 0in /  0.0mm 0 W/m2
06:03 35.2 °F /  1.8 °C 34.5 °F /  1.4 °C 30.3in /  1026.4hPa Calm     97% 0in /  0.0mm 0 W/m2
06:08 35.2 °F /  1.8 °C 34.5 °F /  1.4 °C 30.3in /  1026.8hPa Calm     97% 0in /  0.0mm 0 W/m2
06:13 35.2 °F /  1.8 °C 34.5 °F /  1.4 °C 30.3in /  1026.8hPa Calm     97% 0in /  0.0mm 0 W/m2
06:19 35.1 °F /  1.7 °C 34.3 °F /  1.3 °C 30.3in /  1026.8hPa Calm     97% 0in /  0.0mm 0 W/m2
06:24 35.2 °F /  1.8 °C 34.5 °F /  1.4 °C 30.3in /  1026.4hPa Calm     97% 0in /  0.0mm 0 W/m2
06:29 35.2 °F /  1.8 °C 34.5 °F /  1.4 °C 30.3in /  1026.4hPa Calm     97% 0in /  0.0mm 0 W/m2
06:34 35.1 °F /  1.7 °C 34.3 °F /  1.3 °C 30.3in /  1026.8hPa Calm     97% 0in /  0.0mm 0 W/m2
06:39 35.1 °F /  1.7 °C 34.3 °F /  1.3 °C 30.3in /  1026.8hPa ENE 0.9mph /  1.4km/h 1mph /  1.6km/h 97% 0in /  0.0mm 0 W/m2
06:44 34.9 °F /  1.6 °C 34.2 °F /  1.2 °C 30.3in /  1026.8hPa ENE 0.9mph /  1.4km/h 1mph /  1.6km/h 97% 0in /  0.0mm 0 W/m2
06:49 34.5 °F /  1.4 °C 33.8 °F /  1 °C 30.3in /  1026.8hPa Calm   1mph /  1.6km/h 97% 0in /  0.0mm 0 W/m2
06:54 34.3 °F /  1.3 °C 33.6 °F /  0.9 °C 30.3in /  1026.8hPa ENE 2mph /  3.2km/h 2mph /  3.2km/h 97% 0in /  0.0mm 0 W/m2
06:59 34.2 °F /  1.2 °C 33.4 °F /  0.8 °C 30.3in /  1026.8hPa Calm   1mph /  1.6km/h 97% 0in /  0.0mm 0 W/m2
07:04 34.2 °F /  1.2 °C 33.4 °F /  0.8 °C 30.3in /  1026.8hPa Calm     97% 0in /  0.0mm 0 W/m2
07:09 34 °F /  1.1 °C 33.3 °F /  0.7 °C 30.3in /  1026.8hPa Calm     97% 0in /  0.0mm 0 W/m2
07:14 34 °F /  1.1 °C 33.3 °F /  0.7 °C 30.3in /  1026.8hPa Calm     97% 0in /  0.0mm 0 W/m2
07:19 33.8 °F /  1 °C 33.1 °F /  0.6 °C 30.3in /  1026.8hPa Calm     97% 0in /  0.0mm 0 W/m2
07:24 33.8 °F /  1 °C 33.1 °F /  0.6 °C 30.3in /  1026.8hPa Calm     97% 0in /  0.0mm 0 W/m2
07:29 33.8 °F /  1 °C 33.1 °F /  0.6 °C 30.3in /  1026.8hPa Calm     97% 0in /  0.0mm 0 W/m2
07:34 33.8 °F /  1 °C 33.1 °F /  0.6 °C 30.3in /  1026.8hPa Calm     97% 0in /  0.0mm 0 W/m2
07:39 33.8 °F /  1 °C 33.1 °F /  0.6 °C 30.3in /  1026.8hPa Calm     97% 0in /  0.0mm 5 W/m2
07:44 34 °F /  1.1 °C 33.3 °F /  0.7 °C 30.3in /  1026.8hPa Calm     97% 0in /  0.0mm 7 W/m2
07:49 34 °F /  1.1 °C 33.3 °F /  0.7 °C 30.3in /  1026.8hPa Calm     97% 0in /  0.0mm 11 W/m2
07:54 34.2 °F /  1.2 °C 33.4 °F /  0.8 °C 30.3in /  1026.8hPa Calm     97% 0in /  0.0mm 12 W/m2
07:59 34.2 °F /  1.2 °C 33.4 °F /  0.8 °C 30.3in /  1026.8hPa Calm     97% 0in /  0.0mm 19 W/m2
08:04 34.2 °F /  1.2 °C 33.4 °F /  0.8 °C 30.3in /  1027.1hPa Calm     97% 0in /  0.0mm 23 W/m2
08:09 34.2 °F /  1.2 °C 33.4 °F /  0.8 °C 30.3in /  1027.1hPa Calm     97% 0in /  0.0mm 25 W/m2
08:14 34.2 °F /  1.2 °C 33.4 °F /  0.8 °C 30.3in /  1027.1hPa Calm     97% 0in /  0.0mm 26 W/m2
08:19 34 °F /  1.1 °C 33.3 °F /  0.7 °C 30.3in /  1027.1hPa Calm     97% 0in /  0.0mm 30 W/m2
08:24 34 °F /  1.1 °C 33.3 °F /  0.7 °C 30.3in /  1027.4hPa Calm     97% 0in /  0.0mm 37 W/m2
08:29 34 °F /  1.1 °C 33.3 °F /  0.7 °C 30.3in /  1027.4hPa Calm     97% 0in /  0.0mm 42 W/m2
08:34 34 °F /  1.1 °C 33.3 °F /  0.7 °C 30.3in /  1027.4hPa Calm     97% 0in /  0.0mm 47 W/m2
08:39 34 °F /  1.1 °C 33.3 °F /  0.7 °C 30.3in /  1027.4hPa Calm     97% 0in /  0.0mm 39 W/m2
08:44 34 °F /  1.1 °C 33.3 °F /  0.7 °C 30.3in /  1027.4hPa Calm     97% 0in /  0.0mm 51 W/m2
08:49 34 °F /  1.1 °C 33.3 °F /  0.7 °C 30.3in /  1027.4hPa Calm     97% 0in /  0.0mm 54 W/m2
08:54 34 °F /  1.1 °C 33.3 °F /  0.7 °C 30.3in /  1027.4hPa Calm     97% 0in /  0.0mm 70 W/m2
08:59 34.2 °F /  1.2 °C 33.4 °F /  0.8 °C 30.3in /  1027.4hPa Calm     97% 0in /  0.0mm 74 W/m2
09:04 34.2 °F /  1.2 °C 33.4 °F /  0.8 °C 30.3in /  1027.4hPa Calm     97% 0in /  0.0mm 83 W/m2
09:09 34.3 °F /  1.3 °C 33.6 °F /  0.9 °C 30.3in /  1027.4hPa Calm     97% 0in /  0.0mm 67 W/m2
09:14 34.3 °F /  1.3 °C 33.6 °F /  0.9 °C 30.3in /  1027.4hPa Calm     97% 0in /  0.0mm 70 W/m2
09:19 34.5 °F /  1.4 °C 33.8 °F /  1 °C 30.3in /  1027.4hPa Calm     97% 0in /  0.0mm 58 W/m2
09:24 34.5 °F /  1.4 °C 33.8 °F /  1 °C 30.3in /  1027.4hPa Calm     97% 0in /  0.0mm 72 W/m2
09:29 34.7 °F /  1.5 °C 34 °F /  1.1 °C 30.3in /  1027.4hPa NE 0.9mph /  1.4km/h 1mph /  1.6km/h 97% 0in /  0.0mm 77 W/m2
09:34 34.7 °F /  1.5 °C 34 °F /  1.1 °C 30.3in /  1027.4hPa Calm     97% 0in /  0.0mm 70 W/m2
09:39 34.9 °F /  1.6 °C 34.2 °F /  1.2 °C 30.3in /  1027.4hPa East 0.9mph /  1.4km/h 2mph /  3.2km/h 97% 0in /  0.0mm 65 W/m2
09:44 34.9 °F /  1.6 °C 34.2 °F /  1.2 °C 30.3in /  1027.4hPa Calm   1mph /  1.6km/h 97% 0in /  0.0mm 63 W/m2
09:49 34.9 °F /  1.6 °C 34.2 °F /  1.2 °C 30.3in /  1027.4hPa Calm   1mph /  1.6km/h 97% 0in /  0.0mm 79 W/m2
09:54 34.9 °F /  1.6 °C 34.2 °F /  1.2 °C 30.3in /  1027.4hPa Calm     97% 0in /  0.0mm 88 W/m2
09:59 35.1 °F /  1.7 °C 34.3 °F /  1.3 °C 30.3in /  1027.4hPa Calm     97% 0in /  0.0mm 74 W/m2
10:04 35.2 °F /  1.8 °C 34.5 °F /  1.4 °C 30.3in /  1027.4hPa Calm     97% 0in /  0.0mm 84 W/m2
10:09 35.4 °F /  1.9 °C 34.7 °F /  1.5 °C 30.3in /  1027.4hPa Calm     97% 0in /  0.0mm 70 W/m2
10:14 35.8 °F /  2.1 °C 35.1 °F /  1.7 °C 30.3in /  1027.4hPa Calm     97% 0in /  0.0mm 46 W/m2
10:19 35.8 °F /  2.1 °C 35.1 °F /  1.7 °C 30.3in /  1027.4hPa Calm     97% 0in /  0.0mm 47 W/m2
10:24 36 °F /  2.2 °C 35.2 °F /  1.8 °C 30.3in /  1027.4hPa Calm     97% 0in /  0.0mm 44 W/m2
10:29 36 °F /  2.2 °C 35.2 °F /  1.8 °C 30.3in /  1027.4hPa Calm     97% 0in /  0.0mm 44 W/m2
10:34 36.1 °F /  2.3 °C 35.4 °F /  1.9 °C 30.3in /  1027.4hPa Calm     97% 0in /  0.0mm 37 W/m2
10:39 36.3 °F /  2.4 °C 35.6 °F /  2 °C 30.3in /  1027.4hPa Calm     97% 0in /  0.0mm 37 W/m2
10:44 36.7 °F /  2.6 °C 36 °F /  2.2 °C 30.3in /  1027.4hPa Calm     97% 0in /  0.0mm 40 W/m2
10:49 36.9 °F /  2.7 °C 36.1 °F /  2.3 °C 30.3in /  1027.4hPa Calm     97% 0in /  0.0mm 58 W/m2
10:54 37 °F /  2.8 °C 36.3 °F /  2.4 °C 30.3in /  1027.4hPa ENE 0.9mph /  1.4km/h 2mph /  3.2km/h 97% 0in /  0.0mm 39 W/m2
10:59 37.2 °F /  2.9 °C 36.5 °F /  2.5 °C 30.3in /  1027.4hPa Calm     97% 0in /  0.0mm 40 W/m2
11:04 37.6 °F /  3.1 °C 37 °F /  2.8 °C 30.3in /  1027.4hPa ENE 2mph /  3.2km/h 2mph /  3.2km/h 98% 0in /  0.0mm 42 W/m2
11:09 37.8 °F /  3.2 °C 37 °F /  2.8 °C 30.3in /  1027.4hPa Calm     97% 0in /  0.0mm 44 W/m2
11:14 37.9 °F /  3.3 °C 37.2 °F /  2.9 °C 30.3in /  1027.4hPa Calm     97% 0in /  0.0mm 37 W/m2
11:19 38.1 °F /  3.4 °C 37.6 °F /  3.1 °C 30.3in /  1027.4hPa Calm     98% 0in /  0.0mm 44 W/m2
11:24 38.5 °F /  3.6 °C 37.8 °F /  3.2 °C 30.3in /  1027.4hPa Calm     97% 0in /  0.0mm 35 W/m2
11:29 38.8 °F /  3.8 °C 38.3 °F /  3.5 °C 30.3in /  1027.4hPa Calm     98% 0in /  0.0mm 40 W/m2
11:34 39 °F /  3.9 °C 38.5 °F /  3.6 °C 30.3in /  1027.4hPa Calm     98% 0in /  0.0mm 39 W/m2
11:39 39.4 °F /  4.1 °C 38.7 °F /  3.7 °C 30.3in /  1027.1hPa Calm     97% 0in /  0.0mm 39 W/m2
11:44 39.6 °F /  4.2 °C 39 °F /  3.9 °C 30.3in /  1027.1hPa Calm     98% 0in /  0.0mm 107 W/m2
11:49 39.9 °F /  4.4 °C 39.4 °F /  4.1 °C 30.3in /  1027.1hPa Calm   2mph /  3.2km/h 98% 0in /  0.0mm 109 W/m2
11:54 40.5 °F /  4.7 °C 39.9 °F /  4.4 °C 30.3in /  1027.1hPa Calm   1mph /  1.6km/h 98% 0in /  0.0mm 121 W/m2
11:59 41 °F /  5 °C 40.5 °F /  4.7 °C 30.3in /  1027.1hPa NE 0.9mph /  1.4km/h 2mph /  3.2km/h 98% 0in /  0.0mm 56 W/m2
12:04 41.4 °F /  5.2 °C 40.8 °F /  4.9 °C 30.3in /  1027.1hPa Calm   1mph /  1.6km/h 98% 0in /  0.0mm 74 W/m2
12:09 41.5 °F /  5.3 °C 41 °F /  5 °C 30.3in /  1027.1hPa Calm   2mph /  3.2km/h 98% 0in /  0.0mm 44 W/m2
12:14 41.7 °F /  5.4 °C 41.2 °F /  5.1 °C 30.3in /  1026.8hPa North 0.9mph /  1.4km/h 1mph /  1.6km/h 98% 0in /  0.0mm 47 W/m2
12:19 42.1 °F /  5.6 °C 41.5 °F /  5.3 °C 30.3in /  1026.8hPa Calm     98% 0in /  0.0mm 63 W/m2
12:24 42.3 °F /  5.7 °C 41.7 °F /  5.4 °C 30.3in /  1026.8hPa ENE 4mph /  6.4km/h 5mph /  8km/h 98% 0in /  0.0mm 42 W/m2
12:29 42.6 °F /  5.9 °C 42.1 °F /  5.6 °C 30.3in /  1026.8hPa ENE 0.9mph /  1.4km/h 4mph /  6.4km/h 98% 0in /  0.0mm 65 W/m2
12:34 43.2 °F /  6.2 °C 42.6 °F /  5.9 °C 30.3in /  1026.8hPa ESE 4mph /  6.4km/h 6mph /  9.7km/h 98% 0in /  0.0mm 51 W/m2
12:39 43.5 °F /  6.4 °C 43 °F /  6.1 °C 30.3in /  1026.4hPa ENE 2mph /  3.2km/h 4mph /  6.4km/h 98% 0in /  0.0mm 35 W/m2
12:44 44.2 °F /  6.8 °C 43.7 °F /  6.5 °C 30.3in /  1026.4hPa North 2.9mph /  4.7km/h 6mph /  9.7km/h 98% 0in /  0.0mm 37 W/m2
12:49 45 °F /  7.2 °C 44.2 °F /  6.8 °C 30.3in /  1026.1hPa East 2mph /  3.2km/h 5mph /  8km/h 97% 0in /  0.0mm 39 W/m2
12:54 45.9 °F /  7.7 °C 44.4 °F /  6.9 °C 30.3in /  1026.1hPa East 2mph /  3.2km/h 6mph /  9.7km/h 95% 0in /  0.0mm 46 W/m2
12:59 46.4 °F /  8 °C 43 °F /  6.1 °C 30.3in /  1025.7hPa East 4mph /  6.4km/h 5mph /  8km/h 88% 0in /  0.0mm 51 W/m2
13:04 46.9 °F /  8.3 °C 42.4 °F /  5.8 °C 30.3in /  1025.7hPa East 0.9mph /  1.4km/h 6mph /  9.7km/h 84% 0in /  0.0mm 149 W/m2
13:09 47.3 °F /  8.5 °C 42.1 °F /  5.6 °C 30.3in /  1025.7hPa East 2mph /  3.2km/h 6mph /  9.7km/h 82% 0in /  0.0mm 97 W/m2
13:14 47.5 °F /  8.6 °C 41.5 °F /  5.3 °C 30.3in /  1025.7hPa East 2.9mph /  4.7km/h 6mph /  9.7km/h 80% 0in /  0.0mm 33 W/m2
13:19 47.7 °F /  8.7 °C 41.5 °F /  5.3 °C 30.3in /  1025.7hPa ENE 2.9mph /  4.7km/h 8mph /  12.9km/h 79% 0in /  0.0mm 46 W/m2
13:24 47.8 °F /  8.8 °C 41.7 °F /  5.4 °C 30.3in /  1025.7hPa NNE 0.9mph /  1.4km/h 3mph /  4.8km/h 79% 0in /  0.0mm 67 W/m2
13:29 48 °F /  8.9 °C 41.9 °F /  5.5 °C 30.3in /  1025.7hPa ENE 2mph /  3.2km/h 7mph /  11.3km/h 79% 0in /  0.0mm 74 W/m2
13:34 48 °F /  8.9 °C 41.5 °F /  5.3 °C 30.3in /  1025.7hPa NE 2.9mph /  4.7km/h 5mph /  8km/h 78% 0in /  0.0mm 56 W/m2
13:39 48.4 °F /  9.1 °C 41.5 °F /  5.3 °C 30.3in /  1025.7hPa NE 4.9mph /  7.9km/h 5mph /  8km/h 77% 0in /  0.0mm 39 W/m2
13:44 48.4 °F /  9.1 °C 41.5 °F /  5.3 °C 30.3in /  1025.4hPa East 6.9mph /  11.1km/h 7mph /  11.3km/h 77% 0in /  0.0mm 84 W/m2
13:49 48.6 °F /  9.2 °C 41.7 °F /  5.4 °C 30.3in /  1025.4hPa East 2.9mph /  4.7km/h 4mph /  6.4km/h 77% 0in /  0.0mm 40 W/m2
13:54 48.7 °F /  9.3 °C 41.9 °F /  5.5 °C 30.3in /  1025.4hPa NE 0.9mph /  1.4km/h 4mph /  6.4km/h 77% 0in /  0.0mm 32 W/m2
13:59 48.9 °F /  9.4 °C 42.1 °F /  5.6 °C 30.3in /  1025.4hPa ESE 0.9mph /  1.4km/h 2mph /  3.2km/h 77% 0in /  0.0mm 42 W/m2
14:04 48.9 °F /  9.4 °C 41.4 °F /  5.2 °C 30.3in /  1025.4hPa ENE 0.9mph /  1.4km/h 6mph /  9.7km/h 75% 0in /  0.0mm 39 W/m2
14:09 49.3 °F /  9.6 °C 41.4 °F /  5.2 °C 30.3in /  1025.4hPa SE 4mph /  6.4km/h 4mph /  6.4km/h 74% 0in /  0.0mm 32 W/m2
14:14 49.5 °F /  9.7 °C 40.8 °F /  4.9 °C 30.3in /  1025.4hPa Calm   5mph /  8km/h 72% 0in /  0.0mm 30 W/m2
14:19 49.6 °F /  9.8 °C 41.4 °F /  5.2 °C 30.3in /  1025.4hPa ENE 4mph /  6.4km/h 8mph /  12.9km/h 73% 0in /  0.0mm 30 W/m2
14:24 49.6 °F /  9.8 °C 40.6 °F /  4.8 °C 30.3in /  1025.4hPa ENE 10.1mph /  16.3km/h 10mph /  16.1km/h 71% 0in /  0.0mm 28 W/m2
14:29 49.8 °F /  9.9 °C 40.5 °F /  4.7 °C 30.3in /  1025.4hPa ESE 2.9mph /  4.7km/h 8mph /  12.9km/h 70% 0in /  0.0mm 30 W/m2
14:34 49.8 °F /  9.9 °C 41.2 °F /  5.1 °C 30.3in /  1025.4hPa SE 2mph /  3.2km/h 10mph /  16.1km/h 72% 0in /  0.0mm 28 W/m2
14:39 49.6 °F /  9.8 °C 40.3 °F /  4.6 °C 30.3in /  1025.4hPa ESE 0.9mph /  1.4km/h 6mph /  9.7km/h 70% 0in /  0.0mm 28 W/m2
14:44 49.6 °F /  9.8 °C 41 °F /  5 °C 30.3in /  1025.4hPa East 2.9mph /  4.7km/h 3mph /  4.8km/h 72% 0in /  0.0mm 28 W/m2
14:49 49.5 °F /  9.7 °C 40.8 °F /  4.9 °C 30.3in /  1025.4hPa Calm   4mph /  6.4km/h 72% 0in /  0.0mm 28 W/m2
14:54 49.5 °F /  9.7 °C 41.5 °F /  5.3 °C 30.3in /  1025.1hPa East 2mph /  3.2km/h 2mph /  3.2km/h 74% 0in /  0.0mm 28 W/m2
14:59 49.3 °F /  9.6 °C 41 °F /  5 °C 30.3in /  1025.1hPa SE 2mph /  3.2km/h 3mph /  4.8km/h 73% 0in /  0.0mm 26 W/m2
15:04 48.9 °F /  9.4 °C 40.6 °F /  4.8 °C 30.3in /  1025.1hPa East 2.9mph /  4.7km/h 4mph /  6.4km/h 73% 0in /  0.0mm 26 W/m2
15:09 48.9 °F /  9.4 °C 40.6 °F /  4.8 °C 30.3in /  1025.1hPa NE 2.9mph /  4.7km/h 4mph /  6.4km/h 73% 0in /  0.0mm 26 W/m2
15:14 49.3 °F /  9.6 °C 40.3 °F /  4.6 °C 30.3in /  1025.1hPa East 2.9mph /  4.7km/h 3mph /  4.8km/h 71% 0in /  0.0mm 26 W/m2
15:20 49.5 °F /  9.7 °C 40.1 °F /  4.5 °C 30.3in /  1025.1hPa Calm   3mph /  4.8km/h 70% 0in /  0.0mm 26 W/m2
15:25 49.6 °F /  9.8 °C 40.6 °F /  4.8 °C 30.3in /  1025.1hPa ESE 0.9mph /  1.4km/h 2mph /  3.2km/h 71% 0in /  0.0mm 26 W/m2
15:30 49.5 °F /  9.7 °C 40.1 °F /  4.5 °C 30.3in /  1025.1hPa SE 4mph /  6.4km/h 6mph /  9.7km/h 70% 0in /  0.0mm 28 W/m2
15:35 49.3 °F /  9.6 °C 40.3 °F /  4.6 °C 30.3in /  1025.1hPa NE 0.9mph /  1.4km/h 4mph /  6.4km/h 71% 0in /  0.0mm 28 W/m2
15:40 49.3 °F /  9.6 °C 40.3 °F /  4.6 °C 30.3in /  1025.1hPa East 0.9mph /  1.4km/h 3mph /  4.8km/h 71% 0in /  0.0mm 28 W/m2
15:45 49.1 °F /  9.5 °C 40.1 °F /  4.5 °C 30.3in /  1025.1hPa East 2mph /  3.2km/h 7mph /  11.3km/h 71% 0in /  0.0mm 28 W/m2
15:50 49.3 °F /  9.6 °C 39.9 °F /  4.4 °C 30.3in /  1025.1hPa NE 2.9mph /  4.7km/h 4mph /  6.4km/h 70% 0in /  0.0mm 28 W/m2
15:55 49.3 °F /  9.6 °C 39.9 °F /  4.4 °C 30.3in /  1025.1hPa East 2.9mph /  4.7km/h 6mph /  9.7km/h 70% 0in /  0.0mm 28 W/m2
16:00 49.1 °F /  9.5 °C 40.5 °F /  4.7 °C 30.3in /  1025.1hPa Calm   1mph /  1.6km/h 72% 0in /  0.0mm 26 W/m2
16:05 48.7 °F /  9.3 °C 40.1 °F /  4.5 °C 30.3in /  1025.1hPa Calm   4mph /  6.4km/h 72% 0in /  0.0mm 25 W/m2
16:10 48.6 °F /  9.2 °C 40.3 °F /  4.6 °C 30.3in /  1024.7hPa ESE 0.9mph /  1.4km/h 1mph /  1.6km/h 73% 0in /  0.0mm 23 W/m2
16:15 48.4 °F /  9.1 °C 40.5 °F /  4.7 °C 30.3in /  1024.7hPa East 2.9mph /  4.7km/h 4mph /  6.4km/h 74% 0in /  0.0mm 21 W/m2
16:20 48 °F /  8.9 °C 40.1 °F /  4.5 °C 30.3in /  1024.7hPa ENE 0.9mph /  1.4km/h 2mph /  3.2km/h 74% 0in /  0.0mm 19 W/m2
16:25 47.8 °F /  8.8 °C 40.3 °F /  4.6 °C 30.3in /  1024.7hPa Calm   1mph /  1.6km/h 75% 0in /  0.0mm 18 W/m2
16:30 47.7 °F /  8.7 °C 40.5 °F /  4.7 °C 30.3in /  1024.7hPa Calm     76% 0in /  0.0mm 16 W/m2
16:35 47.3 °F /  8.5 °C 40.5 °F /  4.7 °C 30.3in /  1024.7hPa Calm     77% 0in /  0.0mm 16 W/m2
16:40 46.9 °F /  8.3 °C 40.5 °F /  4.7 °C 30.3in /  1024.7hPa Calm     78% 0in /  0.0mm 14 W/m2
16:45 46.8 °F /  8.2 °C 40.3 °F /  4.6 °C 30.3in /  1024.7hPa East 0.9mph /  1.4km/h 1mph /  1.6km/h 78% 0in /  0.0mm 12 W/m2
16:50 46.8 °F /  8.2 °C 40.6 °F /  4.8 °C 30.3in /  1024.7hPa Calm     79% 0in /  0.0mm 11 W/m2
16:55 46.8 °F /  8.2 °C 41 °F /  5 °C 30.3in /  1024.7hPa Calm   1mph /  1.6km/h 80% 0in /  0.0mm 9 W/m2
17:00 46.6 °F /  8.1 °C 40.8 °F /  4.9 °C 30.3in /  1024.7hPa East 0.9mph /  1.4km/h 1mph /  1.6km/h 80% 0in /  0.0mm 5 W/m2
17:05 46.4 °F /  8 °C 40.8 °F /  4.9 °C 30.3in /  1024.7hPa Calm     81% 0in /  0.0mm 5 W/m2
17:10 46.2 °F /  7.9 °C 40.6 °F /  4.8 °C 30.3in /  1024.7hPa Calm     81% 0in /  0.0mm 0 W/m2
17:15 45.9 °F /  7.7 °C 40.6 °F /  4.8 °C 30.3in /  1025.1hPa Calm   1mph /  1.6km/h 82% 0in /  0.0mm 0 W/m2
17:20 45.7 °F /  7.6 °C 40.5 °F /  4.7 °C 30.3in /  1024.7hPa Calm     82% 0in /  0.0mm 0 W/m2
17:25 45.3 °F /  7.4 °C 40.5 °F /  4.7 °C 30.3in /  1024.7hPa East 0.9mph /  1.4km/h 2mph /  3.2km/h 83% 0in /  0.0mm 0 W/m2
17:30 45.1 °F /  7.3 °C 40.6 °F /  4.8 °C 30.3in /  1024.7hPa Calm     84% 0in /  0.0mm 0 W/m2
17:35 45.1 °F /  7.3 °C 40.6 °F /  4.8 °C 30.3in /  1025.1hPa Calm   1mph /  1.6km/h 84% 0in /  0.0mm 0 W/m2
17:40 44.8 °F /  7.1 °C 40.5 °F /  4.7 °C 30.3in /  1024.7hPa Calm   1mph /  1.6km/h 85% 0in /  0.0mm 0 W/m2
17:45 44.6 °F /  7 °C 40.5 °F /  4.7 °C 30.3in /  1024.7hPa Calm   1mph /  1.6km/h 85% 0in /  0.0mm 0 W/m2
17:50 44.2 °F /  6.8 °C 40.1 °F /  4.5 °C 30.3in /  1025.1hPa Calm     85% 0in /  0.0mm 0 W/m2
17:55 43.9 °F /  6.6 °C 39.9 °F /  4.4 °C 30.3in /  1025.1hPa SE 0.9mph /  1.4km/h 2mph /  3.2km/h 86% 0in /  0.0mm 0 W/m2
18:00 43.7 °F /  6.5 °C 40.1 °F /  4.5 °C 30.3in /  1025.1hPa Calm   1mph /  1.6km/h 87% 0in /  0.0mm 0 W/m2
18:06 43.5 °F /  6.4 °C 39.9 °F /  4.4 °C 30.3in /  1025.1hPa Calm     87% 0in /  0.0mm 0 W/m2
18:11 43.3 °F /  6.3 °C 39.7 °F /  4.3 °C 30.3in /  1025.1hPa Calm     87% 0in /  0.0mm 0 W/m2
18:16 43.3 °F /  6.3 °C 40.1 °F /  4.5 °C 30.3in /  1025.1hPa Calm     88% 0in /  0.0mm 0 W/m2
18:21 43.2 °F /  6.2 °C 39.9 °F /  4.4 °C 30.3in /  1025.1hPa Calm     88% 0in /  0.0mm 0 W/m2
18:26 43 °F /  6.1 °C 39.7 °F /  4.3 °C 30.3in /  1025.1hPa Calm     88% 0in /  0.0mm 0 W/m2
18:31 42.6 °F /  5.9 °C 39.4 °F /  4.1 °C 30.3in /  1025.4hPa Calm     88% 0in /  0.0mm 0 W/m2
18:36 42.4 °F /  5.8 °C 39.2 °F /  4 °C 30.3in /  1025.1hPa Calm     88% 0in /  0.0mm 0 W/m2
18:41 42.3 °F /  5.7 °C 39.2 °F /  4 °C 30.3in /  1025.4hPa Calm     89% 0in /  0.0mm 0 W/m2
18:46 42.1 °F /  5.6 °C 39 °F /  3.9 °C 30.3in /  1025.4hPa Calm     89% 0in /  0.0mm 0 W/m2
18:51 41.7 °F /  5.4 °C 38.7 °F /  3.7 °C 30.3in /  1025.4hPa Calm     89% 0in /  0.0mm 0 W/m2
18:56 41.5 °F /  5.3 °C 38.5 °F /  3.6 °C 30.3in /  1025.4hPa Calm     89% 0in /  0.0mm 0 W/m2
19:01 41.4 °F /  5.2 °C 38.7 °F /  3.7 °C 30.3in /  1025.4hPa Calm     90% 0in /  0.0mm 0 W/m2
19:06 41.4 °F /  5.2 °C 38.7 °F /  3.7 °C 30.3in /  1025.4hPa Calm   2mph /  3.2km/h 90% 0in /  0.0mm 0 W/m2
19:11 41.2 °F /  5.1 °C 38.5 °F /  3.6 °C 30.3in /  1025.4hPa Calm     90% 0in /  0.0mm 0 W/m2
19:16 41.2 °F /  5.1 °C 38.5 °F /  3.6 °C 30.3in /  1025.4hPa Calm   2mph /  3.2km/h 90% 0in /  0.0mm 0 W/m2
19:21 41 °F /  5 °C 38.3 °F /  3.5 °C 30.3in /  1025.4hPa Calm     90% 0in /  0.0mm 0 W/m2
19:26 40.8 °F /  4.9 °C 38.1 °F /  3.4 °C 30.3in /  1025.4hPa Calm     90% 0in /  0.0mm 0 W/m2
19:31 40.8 °F /  4.9 °C 38.5 °F /  3.6 °C 30.3in /  1025.4hPa Calm     91% 0in /  0.0mm 0 W/m2
19:36 40.6 °F /  4.8 °C 38.3 °F /  3.5 °C 30.3in /  1025.4hPa Calm     91% 0in /  0.0mm 0 W/m2
19:41 40.6 °F /  4.8 °C 38.3 °F /  3.5 °C 30.3in /  1025.4hPa Calm   1mph /  1.6km/h 91% 0in /  0.0mm 0 W/m2
19:46 40.5 °F /  4.7 °C 38.1 °F /  3.4 °C 30.3in /  1025.4hPa Calm     91% 0in /  0.0mm 0 W/m2
19:51 40.5 °F /  4.7 °C 38.1 °F /  3.4 °C 30.3in /  1025.4hPa SE 0.9mph /  1.4km/h 1mph /  1.6km/h 91% 0in /  0.0mm 0 W/m2
19:56 40.3 °F /  4.6 °C 37.9 °F /  3.3 °C 30.3in /  1025.4hPa Calm   1mph /  1.6km/h 91% 0in /  0.0mm 0 W/m2
20:01 40.3 °F /  4.6 °C 37.9 °F /  3.3 °C 30.3in /  1025.4hPa Calm   2mph /  3.2km/h 91% 0in /  0.0mm 0 W/m2
20:06 40.3 °F /  4.6 °C 37.9 °F /  3.3 °C 30.3in /  1025.4hPa Calm   2mph /  3.2km/h 91% 0in /  0.0mm 0 W/m2
20:11 40.5 °F /  4.7 °C 38.3 °F /  3.5 °C 30.3in /  1025.4hPa ESE 0.9mph /  1.4km/h 2mph /  3.2km/h 92% 0in /  0.0mm 0 W/m2
20:16 40.6 °F /  4.8 °C 38.5 °F /  3.6 °C 30.3in /  1025.1hPa ESE 0.9mph /  1.4km/h 2mph /  3.2km/h 92% 0in /  0.0mm 0 W/m2
20:21 40.8 °F /  4.9 °C 38.7 °F /  3.7 °C 30.3in /  1025.1hPa Calm   2mph /  3.2km/h 92% 0in /  0.0mm 0 W/m2
20:26 41 °F /  5 °C 38.7 °F /  3.7 °C 30.3in /  1025.1hPa ESE 2mph /  3.2km/h 2mph /  3.2km/h 91% 0in /  0.0mm 0 W/m2
20:31 41 °F /  5 °C 38.7 °F /  3.7 °C 30.3in /  1025.1hPa Calm   1mph /  1.6km/h 91% 0in /  0.0mm 0 W/m2
20:36 40.8 °F /  4.9 °C 38.1 °F /  3.4 °C 30.3in /  1025.4hPa SE 0.9mph /  1.4km/h 2mph /  3.2km/h 90% 0in /  0.0mm 0 W/m2
20:41 40.8 °F /  4.9 °C 38.1 °F /  3.4 °C 30.3in /  1025.4hPa SE 0.9mph /  1.4km/h 2mph /  3.2km/h 90% 0in /  0.0mm 0 W/m2
20:46 40.6 °F /  4.8 °C 37.9 °F /  3.3 °C 30.3in /  1025.4hPa SE 0.9mph /  1.4km/h 1mph /  1.6km/h 90% 0in /  0.0mm 0 W/m2
20:51 40.5 °F /  4.7 °C 37.8 °F /  3.2 °C 30.3in /  1025.4hPa Calm     90% 0in /  0.0mm 0 W/m2
20:56 40.1 °F /  4.5 °C 37.4 °F /  3 °C 30.3in /  1025.4hPa Calm     90% 0in /  0.0mm 0 W/m2
21:01 39.9 °F /  4.4 °C 37.2 °F /  2.9 °C 30.3in /  1025.4hPa Calm     90% 0in /  0.0mm 0 W/m2
21:06 39.7 °F /  4.3 °C 37.4 °F /  3 °C 30.3in /  1025.4hPa Calm     91% 0in /  0.0mm 0 W/m2
21:11 39.6 °F /  4.2 °C 37.2 °F /  2.9 °C 30.3in /  1025.4hPa Calm     91% 0in /  0.0mm 0 W/m2
21:16 39.4 °F /  4.1 °C 37 °F /  2.8 °C 30.3in /  1025.4hPa Calm   2mph /  3.2km/h 91% 0in /  0.0mm 0 W/m2
21:21 39.2 °F /  4 °C 37 °F /  2.8 °C 30.3in /  1025.4hPa Calm   1mph /  1.6km/h 92% 0in /  0.0mm 0 W/m2
21:26 39 °F /  3.9 °C 36.9 °F /  2.7 °C 30.3in /  1025.4hPa Calm     92% 0in /  0.0mm 0 W/m2
21:31 39 °F /  3.9 °C 36.9 °F /  2.7 °C 30.3in /  1025.1hPa Calm     92% 0in /  0.0mm 0 W/m2
21:36 38.8 °F /  3.8 °C 36.7 °F /  2.6 °C 30.3in /  1025.4hPa Calm     92% 0in /  0.0mm 0 W/m2
21:41 38.8 °F /  3.8 °C 36.7 °F /  2.6 °C 30.3in /  1025.1hPa Calm     92% 0in /  0.0mm 0 W/m2
21:46 38.8 °F /  3.8 °C 37 °F /  2.8 °C 30.3in /  1025.1hPa Calm     93% 0in /  0.0mm 0 W/m2
21:51 38.8 °F /  3.8 °C 37 °F /  2.8 °C 30.3in /  1025.4hPa Calm     93% 0in /  0.0mm 0 W/m2
21:56 38.7 °F /  3.7 °C 36.9 °F /  2.7 °C 30.3in /  1025.1hPa Calm     93% 0in /  0.0mm 0 W/m2
22:01 38.7 °F /  3.7 °C 36.9 °F /  2.7 °C 30.3in /  1025.1hPa Calm     93% 0in /  0.0mm 0 W/m2
22:06 38.5 °F /  3.6 °C 36.7 °F /  2.6 °C 30.3in /  1025.1hPa Calm     93% 0in /  0.0mm 0 W/m2
22:11 38.3 °F /  3.5 °C 36.5 °F /  2.5 °C 30.3in /  1025.4hPa Calm     93% 0in /  0.0mm 0 W/m2
22:16 38.1 °F /  3.4 °C 36.3 °F /  2.4 °C 30.3in /  1025.4hPa Calm     93% 0in /  0.0mm 0 W/m2
22:21 37.9 °F /  3.3 °C 36.1 °F /  2.3 °C 30.3in /  1025.4hPa Calm   1mph /  1.6km/h 93% 0in /  0.0mm 0 W/m2
22:26 37.8 °F /  3.2 °C 36 °F /  2.2 °C 30.3in /  1025.4hPa Calm     93% 0in /  0.0mm 0 W/m2
22:31 37.6 °F /  3.1 °C 35.8 °F /  2.1 °C 30.3in /  1025.4hPa Calm   1mph /  1.6km/h 93% 0in /  0.0mm 0 W/m2
22:36 37.4 °F /  3 °C 35.6 °F /  2 °C 30.3in /  1025.4hPa Calm     93% 0in /  0.0mm 0 W/m2
22:41 37.2 °F /  2.9 °C 35.4 °F /  1.9 °C 30.3in /  1025.4hPa Calm     93% 0in /  0.0mm 0 W/m2
22:46 37 °F /  2.8 °C 35.2 °F /  1.8 °C 30.3in /  1025.1hPa Calm     93% 0in /  0.0mm 0 W/m2
22:51 37 °F /  2.8 °C 35.4 °F /  1.9 °C 30.3in /  1025.1hPa SW 2mph /  3.2km/h 2mph /  3.2km/h 94% 0in /  0.0mm 0 W/m2
22:56 37 °F /  2.8 °C 35.4 °F /  1.9 °C 30.3in /  1025.1hPa Calm     94% 0in /  0.0mm 0 W/m2
23:01 36.9 °F /  2.7 °C 35.2 °F /  1.8 °C 30.3in /  1025.1hPa Calm     94% 0in /  0.0mm 0 W/m2
23:06 36.9 °F /  2.7 °C 35.2 °F /  1.8 °C 30.3in /  1025.1hPa Calm     94% 0in /  0.0mm 0 W/m2
23:11 36.9 °F /  2.7 °C 35.2 °F /  1.8 °C 30.3in /  1025.1hPa Calm     94% 0in /  0.0mm 0 W/m2
23:16 36.9 °F /  2.7 °C 35.2 °F /  1.8 °C 30.3in /  1025.1hPa Calm     94% 0in /  0.0mm 0 W/m2
23:21 36.9 °F /  2.7 °C 35.2 °F /  1.8 °C 30.3in /  1025.1hPa Calm     94% 0in /  0.0mm 0 W/m2
23:26 36.7 °F /  2.6 °C 35.1 °F /  1.7 °C 30.3in /  1025.1hPa Calm     94% 0in /  0.0mm 0 W/m2
23:31 36.7 °F /  2.6 °C 35.1 °F /  1.7 °C 30.3in /  1025.1hPa Calm     94% 0in /  0.0mm 0 W/m2
23:36 36.7 °F /  2.6 °C 35.1 °F /  1.7 °C 30.3in /  1025.4hPa Calm     94% 0in /  0.0mm 0 W/m2
23:41 36.5 °F /  2.5 °C 34.9 °F /  1.6 °C 30.3in /  1025.1hPa Calm     94% 0in /  0.0mm 0 W/m2
23:46 36.3 °F /  2.4 °C 34.7 °F /  1.5 °C 30.3in /  1025.1hPa Calm     94% 0in /  0.0mm 0 W/m2
23:51 36.3 °F /  2.4 °C 34.7 °F /  1.5 °C 30.3in /  1025.4hPa Calm     94% 0in /  0.0mm 0 W/m2
23:56 36.3 °F /  2.4 °C 35.1 °F /  1.7 °C 30.3in /  1025.4hPa Calm   1mph /  1.6km/h 95% 0in /  0.0mm 0 W/m2
Juneau County Weather
Compliments of Weather Underground - 4 mb